sensor_id;sensor_type;location;lat;lon;timestamp;P1;durP1;ratioP1;P2;durP2;ratioP2
572;SDS011;271;51.114;13.780;2023-10-13T00:01:51;23.27;;;6.17;;
572;SDS011;271;51.114;13.780;2023-10-13T00:04:40;20.10;;;6.13;;
572;SDS011;271;51.114;13.780;2023-10-13T00:07:28;22.43;;;6.60;;
572;SDS011;271;51.114;13.780;2023-10-13T00:10:16;20.63;;;6.50;;
572;SDS011;271;51.114;13.780;2023-10-13T00:13:06;22.50;;;7.20;;
572;SDS011;271;51.114;13.780;2023-10-13T00:15:58;24.87;;;6.07;;
572;SDS011;271;51.114;13.780;2023-10-13T00:18:45;21.17;;;6.10;;
572;SDS011;271;51.114;13.780;2023-10-13T00:21:34;21.87;;;6.33;;
572;SDS011;271;51.114;13.780;2023-10-13T00:24:21;21.50;;;5.20;;
572;SDS011;271;51.114;13.780;2023-10-13T00:27:16;20.80;;;6.03;;
572;SDS011;271;51.114;13.780;2023-10-13T00:30:20;21.50;;;5.37;;
572;SDS011;271;51.114;13.780;2023-10-13T00:33:18;20.90;;;6.20;;
572;SDS011;271;51.114;13.780;2023-10-13T00:36:08;20.80;;;5.23;;
572;SDS011;271;51.114;13.780;2023-10-13T00:39:03;22.60;;;6.87;;
572;SDS011;271;51.114;13.780;2023-10-13T00:41:52;22.97;;;6.03;;
572;SDS011;271;51.114;13.780;2023-10-13T00:44:44;20.60;;;6.40;;
572;SDS011;271;51.114;13.780;2023-10-13T00:47:35;24.13;;;8.10;;
572;SDS011;271;51.114;13.780;2023-10-13T00:50:34;26.43;;;7.50;;
572;SDS011;271;51.114;13.780;2023-10-13T00:53:23;20.83;;;5.93;;
572;SDS011;271;51.114;13.780;2023-10-13T00:56:11;20.67;;;6.57;;
572;SDS011;271;51.114;13.780;2023-10-13T00:59:09;20.53;;;6.67;;
572;SDS011;271;51.114;13.780;2023-10-13T01:01:59;21.63;;;7.20;;
572;SDS011;271;51.114;13.780;2023-10-13T01:05:08;20.10;;;6.27;;
572;SDS011;271;51.114;13.780;2023-10-13T01:07:55;22.20;;;6.87;;
572;SDS011;271;51.114;13.780;2023-10-13T01:10:47;21.33;;;6.87;;
572;SDS011;271;51.114;13.780;2023-10-13T01:13:35;22.47;;;6.60;;
572;SDS011;271;51.114;13.780;2023-10-13T01:16:23;26.10;;;7.50;;
572;SDS011;271;51.114;13.780;2023-10-13T01:19:12;20.40;;;6.70;;
572;SDS011;271;51.114;13.780;2023-10-13T01:22:05;23.20;;;6.70;;
572;SDS011;271;51.114;13.780;2023-10-13T01:24:53;21.73;;;7.77;;
572;SDS011;271;51.114;13.780;2023-10-13T01:27:51;21.70;;;6.50;;
572;SDS011;271;51.114;13.780;2023-10-13T01:30:38;20.00;;;5.60;;
572;SDS011;271;51.114;13.780;2023-10-13T01:33:26;21.13;;;6.20;;
572;SDS011;271;51.114;13.780;2023-10-13T01:36:13;20.10;;;5.80;;
572;SDS011;271;51.114;13.780;2023-10-13T01:39:01;20.40;;;5.70;;
572;SDS011;271;51.114;13.780;2023-10-13T01:41:50;23.60;;;6.60;;
572;SDS011;271;51.114;13.780;2023-10-13T01:44:41;21.77;;;6.37;;
572;SDS011;271;51.114;13.780;2023-10-13T01:47:27;21.20;;;6.23;;
572;SDS011;271;51.114;13.780;2023-10-13T01:50:15;19.80;;;5.80;;
572;SDS011;271;51.114;13.780;2023-10-13T01:53:06;20.67;;;6.03;;
572;SDS011;271;51.114;13.780;2023-10-13T01:55:57;19.73;;;6.33;;
572;SDS011;271;51.114;13.780;2023-10-13T01:58:45;20.90;;;6.40;;
572;SDS011;271;51.114;13.780;2023-10-13T02:01:33;21.60;;;6.10;;
572;SDS011;271;51.114;13.780;2023-10-13T02:04:20;23.20;;;7.10;;
572;SDS011;271;51.114;13.780;2023-10-13T02:07:08;20.23;;;5.97;;
572;SDS011;271;51.114;13.780;2023-10-13T02:10:00;21.20;;;6.60;;
572;SDS011;271;51.114;13.780;2023-10-13T02:12:50;20.00;;;5.93;;
572;SDS011;271;51.114;13.780;2023-10-13T02:15:42;20.00;;;5.40;;
572;SDS011;271;51.114;13.780;2023-10-13T02:18:31;20.70;;;5.73;;
572;SDS011;271;51.114;13.780;2023-10-13T02:21:27;20.70;;;5.80;;
572;SDS011;271;51.114;13.780;2023-10-13T02:24:17;20.80;;;6.17;;
572;SDS011;271;51.114;13.780;2023-10-13T02:27:06;20.50;;;5.90;;
572;SDS011;271;51.114;13.780;2023-10-13T02:29:59;22.57;;;6.27;;
572;SDS011;271;51.114;13.780;2023-10-13T02:32:48;19.17;;;5.90;;
572;SDS011;271;51.114;13.780;2023-10-13T02:35:34;22.83;;;6.10;;
572;SDS011;271;51.114;13.780;2023-10-13T02:38:27;25.90;;;6.03;;
572;SDS011;271;51.114;13.780;2023-10-13T02:41:15;23.90;;;5.60;;
572;SDS011;271;51.114;13.780;2023-10-13T02:44:10;25.33;;;6.50;;
572;SDS011;271;51.114;13.780;2023-10-13T02:47:06;21.67;;;5.63;;
572;SDS011;271;51.114;13.780;2023-10-13T02:50:01;21.40;;;5.00;;
572;SDS011;271;51.114;13.780;2023-10-13T02:52:57;22.17;;;5.77;;
572;SDS011;271;51.114;13.780;2023-10-13T02:55:51;21.40;;;5.80;;
572;SDS011;271;51.114;13.780;2023-10-13T02:58:40;22.67;;;5.80;;
572;SDS011;271;51.114;13.780;2023-10-13T03:01:31;21.13;;;5.60;;
572;SDS011;271;51.114;13.780;2023-10-13T03:04:19;21.20;;;6.17;;
572;SDS011;271;51.114;13.780;2023-10-13T03:07:13;19.60;;;5.73;;
572;SDS011;271;51.114;13.780;2023-10-13T03:10:08;20.20;;;5.53;;
572;SDS011;271;51.114;13.780;2023-10-13T03:12:55;19.80;;;5.40;;
572;SDS011;271;51.114;13.780;2023-10-13T03:15:43;19.73;;;5.03;;
572;SDS011;271;51.114;13.780;2023-10-13T03:18:33;21.40;;;6.17;;
572;SDS011;271;51.114;13.780;2023-10-13T03:21:22;20.23;;;5.80;;
572;SDS011;271;51.114;13.780;2023-10-13T03:24:16;20.20;;;5.50;;
572;SDS011;271;51.114;13.780;2023-10-13T03:27:08;20.30;;;4.87;;
572;SDS011;271;51.114;13.780;2023-10-13T03:29:56;20.30;;;5.10;;
572;SDS011;271;51.114;13.780;2023-10-13T03:32:46;19.80;;;4.83;;
572;SDS011;271;51.114;13.780;2023-10-13T03:35:40;20.87;;;5.37;;
572;SDS011;271;51.114;13.780;2023-10-13T03:38:29;22.27;;;5.63;;
572;SDS011;271;51.114;13.780;2023-10-13T03:41:23;17.57;;;3.60;;
572;SDS011;271;51.114;13.780;2023-10-13T03:44:16;19.80;;;4.30;;
572;SDS011;271;51.114;13.780;2023-10-13T03:47:04;19.63;;;4.37;;
572;SDS011;271;51.114;13.780;2023-10-13T03:50:04;18.93;;;4.13;;
572;SDS011;271;51.114;13.780;2023-10-13T03:53:02;19.03;;;4.33;;
572;SDS011;271;51.114;13.780;2023-10-13T03:55:51;20.60;;;5.03;;
572;SDS011;271;51.114;13.780;2023-10-13T03:58:55;20.57;;;4.97;;
572;SDS011;271;51.114;13.780;2023-10-13T04:01:52;19.87;;;4.90;;
572;SDS011;271;51.114;13.780;2023-10-13T04:04:45;19.30;;;5.20;;
572;SDS011;271;51.114;13.780;2023-10-13T04:07:35;22.23;;;5.60;;
572;SDS011;271;51.114;13.780;2023-10-13T04:10:49;21.60;;;4.50;;
572;SDS011;271;51.114;13.780;2023-10-13T04:13:57;20.53;;;5.10;;
572;SDS011;271;51.114;13.780;2023-10-13T04:17:04;19.93;;;5.50;;
572;SDS011;271;51.114;13.780;2023-10-13T04:19:59;18.90;;;5.50;;
572;SDS011;271;51.114;13.780;2023-10-13T04:23:05;18.80;;;4.37;;
572;SDS011;271;51.114;13.780;2023-10-13T04:26:08;18.63;;;4.23;;
572;SDS011;271;51.114;13.780;2023-10-13T04:29:08;19.03;;;4.70;;
572;SDS011;271;51.114;13.780;2023-10-13T04:32:13;19.17;;;3.90;;
572;SDS011;271;51.114;13.780;2023-10-13T04:35:01;20.80;;;4.30;;
572;SDS011;271;51.114;13.780;2023-10-13T04:38:03;23.37;;;5.40;;
572;SDS011;271;51.114;13.780;2023-10-13T04:41:04;21.37;;;5.43;;
572;SDS011;271;51.114;13.780;2023-10-13T04:44:10;18.70;;;4.30;;
572;SDS011;271;51.114;13.780;2023-10-13T04:47:34;22.03;;;4.97;;
572;SDS011;271;51.114;13.780;2023-10-13T04:50:33;20.67;;;5.23;;
572;SDS011;271;51.114;13.780;2023-10-13T04:53:30;19.63;;;5.00;;
572;SDS011;271;51.114;13.780;2023-10-13T04:56:19;19.70;;;4.63;;
572;SDS011;271;51.114;13.780;2023-10-13T04:59:25;19.20;;;4.27;;
572;SDS011;271;51.114;13.780;2023-10-13T05:02:45;20.20;;;4.40;;
572;SDS011;271;51.114;13.780;2023-10-13T05:06:01;20.07;;;4.70;;
572;SDS011;271;51.114;13.780;2023-10-13T05:09:17;19.83;;;4.67;;
572;SDS011;271;51.114;13.780;2023-10-13T05:12:22;18.67;;;4.60;;
572;SDS011;271;51.114;13.780;2023-10-13T05:15:28;20.70;;;5.20;;
572;SDS011;271;51.114;13.780;2023-10-13T05:18:33;20.17;;;5.10;;
572;SDS011;271;51.114;13.780;2023-10-13T05:21:39;19.23;;;4.70;;
572;SDS011;271;51.114;13.780;2023-10-13T05:24:44;20.50;;;5.10;;
572;SDS011;271;51.114;13.780;2023-10-13T05:27:54;20.23;;;5.27;;
572;SDS011;271;51.114;13.780;2023-10-13T05:31:00;18.90;;;4.83;;
572;SDS011;271;51.114;13.780;2023-10-13T05:34:07;20.00;;;4.60;;
572;SDS011;271;51.114;13.780;2023-10-13T05:37:12;19.23;;;4.67;;
572;SDS011;271;51.114;13.780;2023-10-13T05:40:17;23.00;;;5.00;;
572;SDS011;271;51.114;13.780;2023-10-13T05:43:22;19.73;;;4.50;;
572;SDS011;271;51.114;13.780;2023-10-13T05:46:29;22.43;;;5.60;;
572;SDS011;271;51.114;13.780;2023-10-13T05:49:45;19.30;;;3.87;;
572;SDS011;271;51.114;13.780;2023-10-13T05:52:36;19.27;;;4.53;;
572;SDS011;271;51.114;13.780;2023-10-13T05:55:41;18.10;;;4.43;;
572;SDS011;271;51.114;13.780;2023-10-13T05:58:46;17.60;;;3.40;;
572;SDS011;271;51.114;13.780;2023-10-13T06:01:52;18.17;;;3.87;;
572;SDS011;271;51.114;13.780;2023-10-13T06:04:57;18.47;;;3.90;;
572;SDS011;271;51.114;13.780;2023-10-13T06:08:05;20.17;;;3.93;;
572;SDS011;271;51.114;13.780;2023-10-13T06:11:10;20.87;;;4.43;;
572;SDS011;271;51.114;13.780;2023-10-13T06:14:15;19.27;;;3.87;;
572;SDS011;271;51.114;13.780;2023-10-13T06:17:22;18.47;;;3.87;;
572;SDS011;271;51.114;13.780;2023-10-13T06:20:27;18.00;;;3.43;;
572;SDS011;271;51.114;13.780;2023-10-13T06:23:40;17.40;;;3.70;;
572;SDS011;271;51.114;13.780;2023-10-13T06:26:47;18.10;;;3.20;;
572;SDS011;271;51.114;13.780;2023-10-13T06:29:52;18.80;;;4.10;;
572;SDS011;271;51.114;13.780;2023-10-13T06:32:41;18.80;;;3.47;;
572;SDS011;271;51.114;13.780;2023-10-13T06:35:28;19.23;;;4.40;;
572;SDS011;271;51.114;13.780;2023-10-13T06:38:17;18.47;;;4.20;;
572;SDS011;271;51.114;13.780;2023-10-13T06:41:07;17.60;;;3.93;;
572;SDS011;271;51.114;13.780;2023-10-13T06:44:05;19.20;;;4.33;;
572;SDS011;271;51.114;13.780;2023-10-13T06:47:00;17.40;;;3.60;;
572;SDS011;271;51.114;13.780;2023-10-13T06:49:51;18.57;;;3.87;;
572;SDS011;271;51.114;13.780;2023-10-13T06:52:40;18.33;;;3.80;;
572;SDS011;271;51.114;13.780;2023-10-13T06:55:28;18.50;;;4.10;;
572;SDS011;271;51.114;13.780;2023-10-13T06:58:21;19.37;;;4.07;;
572;SDS011;271;51.114;13.780;2023-10-13T07:01:10;17.67;;;3.33;;
572;SDS011;271;51.114;13.780;2023-10-13T07:04:00;17.90;;;3.90;;
572;SDS011;271;51.114;13.780;2023-10-13T07:06:50;18.00;;;3.43;;
572;SDS011;271;51.114;13.780;2023-10-13T07:09:40;19.60;;;3.53;;
572;SDS011;271;51.114;13.780;2023-10-13T07:12:35;17.63;;;3.50;;
572;SDS011;271;51.114;13.780;2023-10-13T07:15:28;16.70;;;2.87;;
572;SDS011;271;51.114;13.780;2023-10-13T07:18:16;19.23;;;3.87;;
572;SDS011;271;51.114;13.780;2023-10-13T07:21:05;17.37;;;3.37;;
572;SDS011;271;51.114;13.780;2023-10-13T07:23:57;18.77;;;3.70;;
572;SDS011;271;51.114;13.780;2023-10-13T07:26:54;18.67;;;3.60;;
572;SDS011;271;51.114;13.780;2023-10-13T07:29:49;17.90;;;3.30;;
572;SDS011;271;51.114;13.780;2023-10-13T07:32:42;18.00;;;3.77;;
572;SDS011;271;51.114;13.780;2023-10-13T07:35:31;20.13;;;4.80;;
572;SDS011;271;51.114;13.780;2023-10-13T07:38:21;20.07;;;4.80;;
572;SDS011;271;51.114;13.780;2023-10-13T07:41:10;19.00;;;4.33;;
572;SDS011;271;51.114;13.780;2023-10-13T07:44:01;19.60;;;4.23;;
572;SDS011;271;51.114;13.780;2023-10-13T07:46:51;19.00;;;5.33;;
572;SDS011;271;51.114;13.780;2023-10-13T07:49:45;18.10;;;4.30;;
572;SDS011;271;51.114;13.780;2023-10-13T07:52:36;20.00;;;5.33;;
572;SDS011;271;51.114;13.780;2023-10-13T07:55:27;18.87;;;4.33;;
572;SDS011;271;51.114;13.780;2023-10-13T07:58:19;19.80;;;5.20;;
572;SDS011;271;51.114;13.780;2023-10-13T08:01:10;18.33;;;4.23;;
572;SDS011;271;51.114;13.780;2023-10-13T08:04:03;18.50;;;4.10;;
572;SDS011;271;51.114;13.780;2023-10-13T08:06:57;19.33;;;5.17;;
572;SDS011;271;51.114;13.780;2023-10-13T08:09:57;19.70;;;5.10;;
572;SDS011;271;51.114;13.780;2023-10-13T08:12:47;19.23;;;5.20;;
572;SDS011;271;51.114;13.780;2023-10-13T08:15:38;20.00;;;4.50;;
572;SDS011;271;51.114;13.780;2023-10-13T08:18:33;18.90;;;4.70;;
572;SDS011;271;51.114;13.780;2023-10-13T08:21:21;19.70;;;4.70;;
572;SDS011;271;51.114;13.780;2023-10-13T08:24:10;18.70;;;4.90;;
572;SDS011;271;51.114;13.780;2023-10-13T08:27:01;19.70;;;4.80;;
572;SDS011;271;51.114;13.780;2023-10-13T08:30:18;19.50;;;5.23;;
572;SDS011;271;51.114;13.780;2023-10-13T08:33:16;19.47;;;5.97;;
572;SDS011;271;51.114;13.780;2023-10-13T08:36:04;18.63;;;4.77;;
572;SDS011;271;51.114;13.780;2023-10-13T08:39:15;19.90;;;4.80;;
572;SDS011;271;51.114;13.780;2023-10-13T08:42:28;19.93;;;5.30;;
572;SDS011;271;51.114;13.780;2023-10-13T08:45:38;22.30;;;5.47;;
572;SDS011;271;51.114;13.780;2023-10-13T08:48:45;20.87;;;5.20;;
572;SDS011;271;51.114;13.780;2023-10-13T08:51:33;20.83;;;6.30;;
572;SDS011;271;51.114;13.780;2023-10-13T08:54:35;20.20;;;5.73;;
572;SDS011;271;51.114;13.780;2023-10-13T08:57:32;21.47;;;6.00;;
572;SDS011;271;51.114;13.780;2023-10-13T09:00:20;24.37;;;4.90;;
572;SDS011;271;51.114;13.780;2023-10-13T09:03:18;18.70;;;5.53;;
572;SDS011;271;51.114;13.780;2023-10-13T09:06:16;19.30;;;4.60;;
572;SDS011;271;51.114;13.780;2023-10-13T09:09:08;18.50;;;4.47;;
572;SDS011;271;51.114;13.780;2023-10-13T09:12:12;21.57;;;5.10;;
572;SDS011;271;51.114;13.780;2023-10-13T09:15:03;22.53;;;5.80;;
572;SDS011;271;51.114;13.780;2023-10-13T09:17:51;18.70;;;4.97;;
572;SDS011;271;51.114;13.780;2023-10-13T09:20:39;18.20;;;4.17;;
572;SDS011;271;51.114;13.780;2023-10-13T09:23:30;19.50;;;5.07;;
572;SDS011;271;51.114;13.780;2023-10-13T09:26:33;18.33;;;4.23;;
572;SDS011;271;51.114;13.780;2023-10-13T09:29:22;19.53;;;5.13;;
572;SDS011;271;51.114;13.780;2023-10-13T09:32:10;17.70;;;3.97;;
572;SDS011;271;51.114;13.780;2023-10-13T09:34:59;19.50;;;4.40;;
572;SDS011;271;51.114;13.780;2023-10-13T09:37:51;19.27;;;4.37;;
572;SDS011;271;51.114;13.780;2023-10-13T09:40:43;21.93;;;5.63;;
572;SDS011;271;51.114;13.780;2023-10-13T09:43:37;18.10;;;3.73;;
572;SDS011;271;51.114;13.780;2023-10-13T09:46:26;17.37;;;3.40;;
572;SDS011;271;51.114;13.780;2023-10-13T09:49:14;20.20;;;3.70;;
572;SDS011;271;51.114;13.780;2023-10-13T09:52:30;19.37;;;4.67;;
572;SDS011;271;51.114;13.780;2023-10-13T09:55:21;18.50;;;4.17;;
572;SDS011;271;51.114;13.780;2023-10-13T09:58:15;19.27;;;3.10;;
572;SDS011;271;51.114;13.780;2023-10-13T10:01:06;17.10;;;3.47;;
572;SDS011;271;51.114;13.780;2023-10-13T10:03:55;21.20;;;3.47;;
572;SDS011;271;51.114;13.780;2023-10-13T10:06:54;18.87;;;3.30;;
572;SDS011;271;51.114;13.780;2023-10-13T10:09:43;18.00;;;3.87;;
572;SDS011;271;51.114;13.780;2023-10-13T10:12:31;19.00;;;4.03;;
572;SDS011;271;51.114;13.780;2023-10-13T10:15:28;19.00;;;5.43;;
572;SDS011;271;51.114;13.780;2023-10-13T10:18:20;19.37;;;5.27;;
572;SDS011;271;51.114;13.780;2023-10-13T10:21:09;21.70;;;5.83;;
572;SDS011;271;51.114;13.780;2023-10-13T10:23:57;20.47;;;5.97;;
572;SDS011;271;51.114;13.780;2023-10-13T10:26:51;19.17;;;4.73;;
572;SDS011;271;51.114;13.780;2023-10-13T10:29:40;22.13;;;6.13;;
572;SDS011;271;51.114;13.780;2023-10-13T10:32:40;21.30;;;6.30;;
572;SDS011;271;51.114;13.780;2023-10-13T10:35:37;23.17;;;7.07;;
572;SDS011;271;51.114;13.780;2023-10-13T10:38:26;20.90;;;6.93;;
572;SDS011;271;51.114;13.780;2023-10-13T10:41:24;20.40;;;6.57;;
572;SDS011;271;51.114;13.780;2023-10-13T10:44:16;21.00;;;6.20;;
572;SDS011;271;51.114;13.780;2023-10-13T10:47:10;21.70;;;7.03;;
572;SDS011;271;51.114;13.780;2023-10-13T10:50:06;23.33;;;7.30;;
572;SDS011;271;51.114;13.780;2023-10-13T10:53:05;27.20;;;7.30;;
572;SDS011;271;51.114;13.780;2023-10-13T10:55:54;21.73;;;7.33;;
572;SDS011;271;51.114;13.780;2023-10-13T10:58:53;21.57;;;6.90;;
572;SDS011;271;51.114;13.780;2023-10-13T11:01:42;21.03;;;5.83;;
572;SDS011;271;51.114;13.780;2023-10-13T11:04:33;22.00;;;6.57;;
572;SDS011;271;51.114;13.780;2023-10-13T11:07:27;23.10;;;6.53;;
572;SDS011;271;51.114;13.780;2023-10-13T11:10:17;23.10;;;6.50;;
572;SDS011;271;51.114;13.780;2023-10-13T11:13:12;20.87;;;6.63;;
572;SDS011;271;51.114;13.780;2023-10-13T11:16:07;23.97;;;6.60;;
572;SDS011;271;51.114;13.780;2023-10-13T11:19:00;22.03;;;6.17;;
572;SDS011;271;51.114;13.780;2023-10-13T11:21:48;22.53;;;5.67;;
572;SDS011;271;51.114;13.780;2023-10-13T11:24:40;22.00;;;5.57;;
572;SDS011;271;51.114;13.780;2023-10-13T11:27:29;20.17;;;4.50;;
572;SDS011;271;51.114;13.780;2023-10-13T11:30:31;20.70;;;5.37;;
572;SDS011;271;51.114;13.780;2023-10-13T11:33:27;20.07;;;5.00;;
572;SDS011;271;51.114;13.780;2023-10-13T11:36:15;20.90;;;5.10;;
572;SDS011;271;51.114;13.780;2023-10-13T11:39:08;24.80;;;5.30;;
572;SDS011;271;51.114;13.780;2023-10-13T11:42:04;19.70;;;3.60;;
572;SDS011;271;51.114;13.780;2023-10-13T11:44:56;20.10;;;4.10;;
572;SDS011;271;51.114;13.780;2023-10-13T11:48:08;19.30;;;4.17;;
572;SDS011;271;51.114;13.780;2023-10-13T11:51:00;20.10;;;4.53;;
572;SDS011;271;51.114;13.780;2023-10-13T11:53:51;19.67;;;4.20;;
572;SDS011;271;51.114;13.780;2023-10-13T11:56:39;18.60;;;4.00;;
572;SDS011;271;51.114;13.780;2023-10-13T11:59:28;19.20;;;3.90;;
572;SDS011;271;51.114;13.780;2023-10-13T12:02:17;24.53;;;3.93;;
572;SDS011;271;51.114;13.780;2023-10-13T12:05:22;22.83;;;4.60;;
572;SDS011;271;51.114;13.780;2023-10-13T12:08:23;19.97;;;4.60;;
572;SDS011;271;51.114;13.780;2023-10-13T12:11:18;20.37;;;5.07;;
572;SDS011;271;51.114;13.780;2023-10-13T12:14:18;24.20;;;5.10;;
572;SDS011;271;51.114;13.780;2023-10-13T12:17:09;21.80;;;5.70;;
572;SDS011;271;51.114;13.780;2023-10-13T12:19:57;21.67;;;5.30;;
572;SDS011;271;51.114;13.780;2023-10-13T12:22:45;21.63;;;5.63;;
572;SDS011;271;51.114;13.780;2023-10-13T12:25:41;21.33;;;4.80;;
572;SDS011;271;51.114;13.780;2023-10-13T12:28:43;21.60;;;5.10;;
572;SDS011;271;51.114;13.780;2023-10-13T12:31:37;19.90;;;4.73;;
572;SDS011;271;51.114;13.780;2023-10-13T12:34:26;25.83;;;5.57;;
572;SDS011;271;51.114;13.780;2023-10-13T12:37:32;23.10;;;5.00;;
572;SDS011;271;51.114;13.780;2023-10-13T12:40:35;22.03;;;4.97;;
572;SDS011;271;51.114;13.780;2023-10-13T12:43:40;25.70;;;4.80;;
572;SDS011;271;51.114;13.780;2023-10-13T12:46:45;19.60;;;4.70;;
572;SDS011;271;51.114;13.780;2023-10-13T12:49:52;19.00;;;4.50;;
572;SDS011;271;51.114;13.780;2023-10-13T12:52:45;24.23;;;6.33;;
572;SDS011;271;51.114;13.780;2023-10-13T12:55:33;18.93;;;5.20;;
572;SDS011;271;51.114;13.780;2023-10-13T12:58:26;20.50;;;4.87;;
572;SDS011;271;51.114;13.780;2023-10-13T13:01:15;19.33;;;4.80;;
572;SDS011;271;51.114;13.780;2023-10-13T13:04:06;22.80;;;5.00;;
572;SDS011;271;51.114;13.780;2023-10-13T13:07:04;18.40;;;4.37;;
572;SDS011;271;51.114;13.780;2023-10-13T13:09:51;21.03;;;4.07;;
572;SDS011;271;51.114;13.780;2023-10-13T13:12:42;18.73;;;4.67;;
572;SDS011;271;51.114;13.780;2023-10-13T13:15:31;20.07;;;4.57;;
572;SDS011;271;51.114;13.780;2023-10-13T13:18:32;24.83;;;5.73;;
572;SDS011;271;51.114;13.780;2023-10-13T13:21:20;18.60;;;4.07;;
572;SDS011;271;51.114;13.780;2023-10-13T13:24:11;17.30;;;4.00;;
572;SDS011;271;51.114;13.780;2023-10-13T13:27:00;18.23;;;5.27;;
572;SDS011;271;51.114;13.780;2023-10-13T13:29:51;21.50;;;4.63;;
572;SDS011;271;51.114;13.780;2023-10-13T13:32:38;21.47;;;6.13;;
572;SDS011;271;51.114;13.780;2023-10-13T13:35:27;20.37;;;5.30;;
572;SDS011;271;51.114;13.780;2023-10-13T13:38:21;20.70;;;4.17;;
572;SDS011;271;51.114;13.780;2023-10-13T13:41:15;19.77;;;4.70;;
572;SDS011;271;51.114;13.780;2023-10-13T13:44:04;19.47;;;4.70;;
572;SDS011;271;51.114;13.780;2023-10-13T13:47:00;25.07;;;4.20;;
572;SDS011;271;51.114;13.780;2023-10-13T13:49:51;20.07;;;5.23;;
572;SDS011;271;51.114;13.780;2023-10-13T13:52:41;20.77;;;5.60;;
572;SDS011;271;51.114;13.780;2023-10-13T13:55:33;21.50;;;5.10;;
572;SDS011;271;51.114;13.780;2023-10-13T13:58:22;17.90;;;4.70;;
572;SDS011;271;51.114;13.780;2023-10-13T14:01:11;20.53;;;5.10;;
572;SDS011;271;51.114;13.780;2023-10-13T14:04:00;18.97;;;4.40;;
572;SDS011;271;51.114;13.780;2023-10-13T14:06:49;21.07;;;5.20;;
572;SDS011;271;51.114;13.780;2023-10-13T14:09:52;21.20;;;5.40;;
572;SDS011;271;51.114;13.780;2023-10-13T14:12:51;19.23;;;4.60;;
572;SDS011;271;51.114;13.780;2023-10-13T14:15:39;20.73;;;5.13;;
572;SDS011;271;51.114;13.780;2023-10-13T14:18:30;18.43;;;3.47;;
572;SDS011;271;51.114;13.780;2023-10-13T14:21:17;18.30;;;4.53;;
572;SDS011;271;51.114;13.780;2023-10-13T14:24:10;19.87;;;4.30;;
572;SDS011;271;51.114;13.780;2023-10-13T14:27:02;19.40;;;4.03;;
572;SDS011;271;51.114;13.780;2023-10-13T14:29:55;17.87;;;4.00;;
572;SDS011;271;51.114;13.780;2023-10-13T14:32:43;21.10;;;3.97;;
572;SDS011;271;51.114;13.780;2023-10-13T14:35:35;18.80;;;4.17;;
572;SDS011;271;51.114;13.780;2023-10-13T14:38:23;20.77;;;4.93;;
572;SDS011;271;51.114;13.780;2023-10-13T14:41:12;24.50;;;5.37;;
572;SDS011;271;51.114;13.780;2023-10-13T14:44:05;19.40;;;5.00;;
572;SDS011;271;51.114;13.780;2023-10-13T14:46:54;18.73;;;4.07;;
572;SDS011;271;51.114;13.780;2023-10-13T14:49:42;20.60;;;4.43;;
572;SDS011;271;51.114;13.780;2023-10-13T14:52:30;19.13;;;4.70;;
572;SDS011;271;51.114;13.780;2023-10-13T14:55:18;18.90;;;5.10;;
572;SDS011;271;51.114;13.780;2023-10-13T14:58:05;17.70;;;4.10;;
572;SDS011;271;51.114;13.780;2023-10-13T15:00:55;20.57;;;5.60;;
572;SDS011;271;51.114;13.780;2023-10-13T15:03:45;20.70;;;4.80;;
572;SDS011;271;51.114;13.780;2023-10-13T15:06:34;19.50;;;4.40;;
572;SDS011;271;51.114;13.780;2023-10-13T15:09:22;20.03;;;5.00;;
572;SDS011;271;51.114;13.780;2023-10-13T15:12:10;18.10;;;5.50;;
572;SDS011;271;51.114;13.780;2023-10-13T15:14:58;19.33;;;4.50;;
572;SDS011;271;51.114;13.780;2023-10-13T15:17:47;19.07;;;4.10;;
572;SDS011;271;51.114;13.780;2023-10-13T15:20:38;21.00;;;5.17;;
572;SDS011;271;51.114;13.780;2023-10-13T15:23:29;22.67;;;5.90;;
572;SDS011;271;51.114;13.780;2023-10-13T15:26:19;20.43;;;5.00;;
572;SDS011;271;51.114;13.780;2023-10-13T15:29:09;20.13;;;5.20;;
572;SDS011;271;51.114;13.780;2023-10-13T15:31:58;20.50;;;5.27;;
572;SDS011;271;51.114;13.780;2023-10-13T15:35:12;19.10;;;5.17;;
572;SDS011;271;51.114;13.780;2023-10-13T15:38:01;23.50;;;4.90;;
572;SDS011;271;51.114;13.780;2023-10-13T15:40:50;21.50;;;5.10;;
572;SDS011;271;51.114;13.780;2023-10-13T15:43:40;20.57;;;5.20;;
572;SDS011;271;51.114;13.780;2023-10-13T15:46:35;20.63;;;4.90;;
572;SDS011;271;51.114;13.780;2023-10-13T15:49:23;19.53;;;4.40;;
572;SDS011;271;51.114;13.780;2023-10-13T15:52:15;21.00;;;4.60;;
572;SDS011;271;51.114;13.780;2023-10-13T15:55:03;20.40;;;4.53;;
572;SDS011;271;51.114;13.780;2023-10-13T15:57:53;21.00;;;4.63;;
572;SDS011;271;51.114;13.780;2023-10-13T16:00:40;19.53;;;5.83;;
572;SDS011;271;51.114;13.780;2023-10-13T16:03:29;17.00;;;3.90;;
572;SDS011;271;51.114;13.780;2023-10-13T16:06:17;20.10;;;4.37;;
572;SDS011;271;51.114;13.780;2023-10-13T16:09:06;18.37;;;4.30;;
572;SDS011;271;51.114;13.780;2023-10-13T16:11:59;20.03;;;5.20;;
572;SDS011;271;51.114;13.780;2023-10-13T16:14:47;19.50;;;4.93;;
572;SDS011;271;51.114;13.780;2023-10-13T16:17:35;18.90;;;4.70;;
572;SDS011;271;51.114;13.780;2023-10-13T16:20:25;21.30;;;4.67;;
572;SDS011;271;51.114;13.780;2023-10-13T16:23:13;18.83;;;4.70;;
572;SDS011;271;51.114;13.780;2023-10-13T16:26:04;20.80;;;4.70;;
572;SDS011;271;51.114;13.780;2023-10-13T16:28:53;21.03;;;5.40;;
572;SDS011;271;51.114;13.780;2023-10-13T16:31:44;20.40;;;4.63;;
572;SDS011;271;51.114;13.780;2023-10-13T16:34:33;18.00;;;4.13;;
572;SDS011;271;51.114;13.780;2023-10-13T16:37:20;18.70;;;3.97;;
572;SDS011;271;51.114;13.780;2023-10-13T16:40:08;19.37;;;3.97;;
572;SDS011;271;51.114;13.780;2023-10-13T16:42:58;18.07;;;4.83;;
572;SDS011;271;51.114;13.780;2023-10-13T16:45:46;17.20;;;4.40;;
572;SDS011;271;51.114;13.780;2023-10-13T16:48:34;18.30;;;4.30;;
572;SDS011;271;51.114;13.780;2023-10-13T16:51:22;19.50;;;4.60;;
572;SDS011;271;51.114;13.780;2023-10-13T16:54:10;18.10;;;4.90;;
572;SDS011;271;51.114;13.780;2023-10-13T16:56:58;18.37;;;4.30;;
572;SDS011;271;51.114;13.780;2023-10-13T16:59:47;17.40;;;4.57;;
572;SDS011;271;51.114;13.780;2023-10-13T17:02:35;22.50;;;4.03;;
572;SDS011;271;51.114;13.780;2023-10-13T17:05:22;19.00;;;4.70;;
572;SDS011;271;51.114;13.780;2023-10-13T17:08:13;18.97;;;5.37;;
572;SDS011;271;51.114;13.780;2023-10-13T17:11:06;18.60;;;4.53;;
572;SDS011;271;51.114;13.780;2023-10-13T17:13:56;17.27;;;4.57;;
572;SDS011;271;51.114;13.780;2023-10-13T17:16:46;19.07;;;4.43;;
572;SDS011;271;51.114;13.780;2023-10-13T17:19:34;18.00;;;4.30;;
572;SDS011;271;51.114;13.780;2023-10-13T17:22:21;20.13;;;5.00;;
572;SDS011;271;51.114;13.780;2023-10-13T17:25:10;19.77;;;5.07;;
572;SDS011;271;51.114;13.780;2023-10-13T17:28:00;24.43;;;5.30;;
572;SDS011;271;51.114;13.780;2023-10-13T17:30:51;17.83;;;3.97;;
572;SDS011;271;51.114;13.780;2023-10-13T17:33:40;23.27;;;4.60;;
572;SDS011;271;51.114;13.780;2023-10-13T17:36:31;19.07;;;4.73;;
572;SDS011;271;51.114;13.780;2023-10-13T17:39:19;18.47;;;5.57;;
572;SDS011;271;51.114;13.780;2023-10-13T17:42:07;17.50;;;4.20;;
572;SDS011;271;51.114;13.780;2023-10-13T17:44:59;18.67;;;5.60;;
572;SDS011;271;51.114;13.780;2023-10-13T17:47:47;21.53;;;5.93;;
572;SDS011;271;51.114;13.780;2023-10-13T17:50:37;21.23;;;5.07;;
572;SDS011;271;51.114;13.780;2023-10-13T17:53:24;20.23;;;5.90;;
572;SDS011;271;51.114;13.780;2023-10-13T17:56:20;19.83;;;5.23;;
572;SDS011;271;51.114;13.780;2023-10-13T17:59:08;20.50;;;5.10;;